createdAt,value
2023-08-15T00:00:05.814Z,101286.41
2023-08-15T00:02:32.331Z,101280.38
2023-08-15T00:04:58.724Z,101278.53
2023-08-15T00:07:25.235Z,101276.00
2023-08-15T00:09:51.676Z,101273.31
2023-08-15T00:12:18.218Z,101268.91
2023-08-15T00:14:44.641Z,101262.72
2023-08-15T00:17:12.039Z,101262.72
2023-08-15T00:19:38.794Z,101268.25
2023-08-15T00:22:05.407Z,101267.41
2023-08-15T00:24:32.134Z,101266.56
2023-08-15T00:26:58.586Z,101267.59
2023-08-15T00:29:25.058Z,101268.41
2023-08-15T00:31:51.506Z,101274.78
2023-08-15T00:34:17.944Z,101267.75
2023-08-15T00:36:44.504Z,101279.31
2023-08-15T00:39:10.919Z,101271.44
2023-08-15T00:41:37.806Z,101275.97
2023-08-15T00:44:04.470Z,101282.16
2023-08-15T00:46:32.026Z,101281.47
2023-08-15T00:48:59.731Z,101282.47
2023-08-15T00:51:27.731Z,101281.63
2023-08-15T00:53:54.372Z,101275.25
2023-08-15T00:56:22.466Z,101272.75
2023-08-15T00:58:49.136Z,101276.44
2023-08-15T01:01:18.730Z,101287.16
2023-08-15T01:03:47.232Z,101290.69
2023-08-15T01:06:14.425Z,101291.69
2023-08-15T01:08:41.944Z,101301.59
2023-08-15T01:11:08.652Z,101296.22
2023-08-15T01:13:42.005Z,101290.03
2023-08-15T01:16:14.606Z,101285.66
2023-08-15T01:18:49.388Z,101288.50
2023-08-15T01:21:21.905Z,101298.38
2023-08-15T01:23:50.587Z,101297.41
2023-08-15T01:26:17.047Z,101295.69
2023-08-15T01:28:43.617Z,101292.16
2023-08-15T01:31:13.806Z,101289.47
2023-08-15T01:33:58.293Z,101286.81
2023-08-15T01:36:31.964Z,101280.59
2023-08-15T01:39:04.957Z,101273.56
2023-08-15T01:41:34.471Z,101270.22
2023-08-15T01:44:02.079Z,101271.06
2023-08-15T01:46:28.995Z,101278.25
2023-08-15T01:48:55.718Z,101279.09
2023-08-15T01:51:22.217Z,101277.41
2023-08-15T01:53:48.700Z,101271.22
2023-08-15T01:56:15.185Z,101265.84
2023-08-15T01:58:42.300Z,101272.22
2023-08-15T02:01:08.843Z,101275.91
2023-08-15T02:03:35.315Z,101278.59
2023-08-15T02:06:01.917Z,101275.91
2023-08-15T02:08:28.356Z,101275.91
2023-08-15T02:10:54.901Z,101286.78
2023-08-15T02:13:21.472Z,101293.00
2023-08-15T02:15:48.036Z,101293.13
2023-08-15T02:18:14.542Z,101304.69
2023-08-15T02:20:41.062Z,101295.81
2023-08-15T02:23:07.645Z,101308.41
2023-08-15T02:25:34.160Z,101301.34
2023-08-15T02:28:00.662Z,101308.41
2023-08-15T02:30:27.193Z,101321.97
2023-08-15T02:32:53.772Z,101323.66
2023-08-15T02:35:20.401Z,101323.81
2023-08-15T02:37:46.849Z,101321.97
2023-08-15T02:40:13.800Z,101328.34
2023-08-15T02:42:40.217Z,101332.03
2023-08-15T02:45:07.237Z,101335.53
2023-08-15T02:47:33.689Z,101332.84
2023-08-15T02:50:00.256Z,101345.44
2023-08-15T02:52:26.683Z,101341.06
2023-08-15T02:54:53.060Z,101343.59
2023-08-15T02:57:19.778Z,101341.91
2023-08-15T02:59:46.713Z,101346.44
2023-08-15T03:02:15.085Z,101352.63
2023-08-15T03:04:42.423Z,101341.06
2023-08-15T03:07:08.905Z,101345.59
2023-08-15T03:09:35.366Z,101355.47
2023-08-15T03:12:01.872Z,101365.38
2023-08-15T03:14:29.815Z,101355.63
2023-08-15T03:16:56.912Z,101350.25
2023-08-15T03:19:23.428Z,101344.88
2023-08-15T03:21:49.932Z,101343.06
2023-08-15T03:24:16.764Z,101339.53
2023-08-15T03:26:44.339Z,101344.03
2023-08-15T03:29:10.810Z,101339.69
2023-08-15T03:31:37.474Z,101346.91
2023-08-15T03:34:04.034Z,101347.72
2023-08-15T03:36:30.569Z,101343.22
2023-08-15T03:38:57.005Z,101341.53
2023-08-15T03:41:23.504Z,101344.22
2023-08-15T03:43:49.973Z,101337.19
2023-08-15T03:46:16.790Z,101339.00
2023-08-15T03:48:43.919Z,101340.84
2023-08-15T03:51:12.903Z,101345.22
2023-08-15T03:53:43.805Z,101340.03
2023-08-15T03:56:10.207Z,101340.84
2023-08-15T03:58:36.610Z,101344.53
2023-08-15T04:01:03.019Z,101342.69
2023-08-15T04:03:29.431Z,101344.53
2023-08-15T04:05:56.632Z,101346.38
2023-08-15T04:08:26.141Z,101350.91
2023-08-15T04:10:52.667Z,101357.09
2023-08-15T04:13:19.106Z,101349.22
2023-08-15T04:15:45.586Z,101350.22
2023-08-15T04:18:12.927Z,101347.56
2023-08-15T04:20:40.437Z,101350.22
2023-08-15T04:23:07.916Z,101350.22
2023-08-15T04:25:35.926Z,101353.88
2023-08-15T04:28:03.411Z,101361.94
2023-08-15T04:30:31.289Z,101360.25
2023-08-15T04:32:59.874Z,101375.34
2023-08-15T04:35:27.155Z,101370.97
2023-08-15T04:37:53.624Z,101358.56
2023-08-15T04:40:39.146Z,101357.56
2023-08-15T04:43:05.725Z,101366.63
2023-08-15T04:45:32.347Z,101371.16
2023-08-15T04:47:58.886Z,101370.31
2023-08-15T04:50:25.803Z,101366.78
2023-08-15T04:52:52.291Z,101381.88
2023-08-15T04:55:18.774Z,101386.38
2023-08-15T04:57:45.316Z,101389.06
2023-08-15T05:00:13.921Z,101394.44
2023-08-15T05:02:40.450Z,101398.13
2023-08-15T05:05:07.930Z,101404.31
2023-08-15T05:07:34.639Z,101400.78
2023-08-15T05:10:01.139Z,101415.03
2023-08-15T05:12:27.683Z,101413.19
2023-08-15T05:14:54.232Z,101413.34
2023-08-15T05:17:20.923Z,101427.59
2023-08-15T05:19:47.809Z,101426.75
2023-08-15T05:22:14.403Z,101436.47
2023-08-15T05:24:40.877Z,101427.59
2023-08-15T05:27:07.343Z,101433.81
2023-08-15T05:29:33.939Z,101442.69
2023-08-15T05:32:00.507Z,101448.03
2023-08-15T05:34:26.971Z,101443.69
2023-08-15T05:36:53.389Z,101445.38
2023-08-15T05:39:19.821Z,101446.22
2023-08-15T05:41:46.303Z,101458.78
2023-08-15T05:44:12.834Z,101459.59
2023-08-15T05:46:39.288Z,101457.78
2023-08-15T05:49:05.784Z,101468.34
2023-08-15T05:51:32.275Z,101471.00
2023-08-15T05:53:58.809Z,101462.97
2023-08-15T05:56:25.270Z,101469.16
2023-08-15T05:58:51.754Z,101470.00
2023-08-15T06:01:18.251Z,101475.25
2023-08-15T06:03:52.614Z,101469.03
2023-08-15T06:06:19.709Z,101471.72
2023-08-15T06:08:46.217Z,101478.75
2023-08-15T06:11:12.952Z,101468.88
2023-08-15T06:13:39.357Z,101475.06
2023-08-15T06:16:05.740Z,101482.28
2023-08-15T06:18:32.235Z,101483.97
2023-08-15T06:20:58.684Z,101488.31
2023-08-15T06:23:25.268Z,101490.84
2023-08-15T06:25:51.726Z,101498.03
2023-08-15T06:28:19.932Z,101497.88
2023-08-15T06:30:46.615Z,101503.25
2023-08-15T06:33:14.032Z,101508.44
2023-08-15T06:35:40.688Z,101503.09
2023-08-15T06:38:07.284Z,101511.69
2023-08-15T06:40:33.741Z,101517.56
2023-08-15T06:43:00.223Z,101517.41
2023-08-15T06:45:26.627Z,101527.00
2023-08-15T06:47:53.112Z,101521.47
2023-08-15T06:50:19.674Z,101527.50
2023-08-15T06:52:46.133Z,101520.97
2023-08-15T06:55:13.346Z,101524.53
2023-08-15T06:57:39.744Z,101521.69
2023-08-15T07:00:13.242Z,101529.75
2023-08-15T07:02:43.092Z,101531.41
2023-08-15T07:05:11.716Z,101528.75
2023-08-15T07:07:38.512Z,101527.91
2023-08-15T07:10:08.592Z,101533.94
2023-08-15T07:12:35.333Z,101531.94
2023-08-15T07:15:02.756Z,101530.81
2023-08-15T07:17:29.269Z,101531.63
2023-08-15T07:19:56.654Z,101537.84
2023-08-15T07:22:23.661Z,101541.53
2023-08-15T07:24:50.810Z,101542.38
2023-08-15T07:27:17.420Z,101545.91
2023-08-15T07:29:45.816Z,101552.25
2023-08-15T07:32:16.486Z,101547.75
2023-08-15T07:34:43.300Z,101553.09
2023-08-15T07:37:09.841Z,101545.72
2023-08-15T07:39:36.242Z,101548.25
2023-08-15T07:42:02.744Z,101548.09
2023-08-15T07:44:29.350Z,101553.19
2023-08-15T07:46:55.796Z,101552.19
2023-08-15T07:49:22.253Z,101551.44
2023-08-15T07:51:49.020Z,101557.56
2023-08-15T07:54:15.507Z,101550.59
2023-08-15T07:56:42.032Z,101553.47
2023-08-15T07:59:08.511Z,101563.94
2023-08-15T08:01:34.989Z,101573.66
2023-08-15T08:04:02.049Z,101578.03
2023-08-15T08:06:39.790Z,101586.75
2023-08-15T08:09:07.938Z,101575.84
2023-08-15T08:11:34.456Z,101582.91
2023-08-15T08:14:00.878Z,101587.81
2023-08-15T08:16:27.472Z,101585.66
2023-08-15T08:18:54.614Z,101586.19
2023-08-15T08:21:21.077Z,101584.03
2023-08-15T08:23:47.580Z,101584.53
2023-08-15T08:26:14.896Z,101581.72
2023-08-15T08:28:41.411Z,101582.41
2023-08-15T08:31:08.260Z,101589.13
2023-08-15T08:33:34.871Z,101586.97
2023-08-15T08:36:01.330Z,101589.00
2023-08-15T08:38:28.569Z,101587.53
2023-08-15T08:40:58.700Z,101592.56
2023-08-15T08:43:26.378Z,101601.34
2023-08-15T08:45:55.556Z,101604.91
2023-08-15T08:48:23.362Z,101591.53
2023-08-15T08:50:50.069Z,101597.63
2023-08-15T08:53:17.192Z,101596.78
2023-08-15T08:55:48.303Z,101602.34
2023-08-15T08:58:15.509Z,101597.38
2023-08-15T09:00:42.394Z,101600.38
2023-08-15T09:03:11.023Z,101599.97
2023-08-15T09:05:37.979Z,101589.72
2023-08-15T09:08:05.500Z,101599.06
2023-08-15T09:10:32.141Z,101594.84
2023-08-15T09:13:04.881Z,101594.81
2023-08-15T09:15:33.747Z,101599.72
2023-08-15T09:18:06.047Z,101595.78
2023-08-15T09:20:33.070Z,101598.94
2023-08-15T09:23:01.327Z,101600.78
2023-08-15T09:25:28.691Z,101601.66
2023-08-15T09:27:55.656Z,101601.19
2023-08-15T09:30:22.911Z,101608.69
2023-08-15T09:32:50.083Z,101606.38
2023-08-15T09:35:18.993Z,101606.63
2023-08-15T09:37:50.630Z,101616.63
2023-08-15T09:40:26.609Z,101616.81
2023-08-15T09:42:53.868Z,101621.22
2023-08-15T09:45:20.569Z,101618.09
2023-08-15T09:47:47.382Z,101621.19
2023-08-15T09:50:16.627Z,101626.47
2023-08-15T09:52:48.525Z,101633.16
2023-08-15T09:55:17.575Z,101622.13
2023-08-15T09:57:45.714Z,101625.94
2023-08-15T10:00:14.982Z,101634.94
2023-08-15T10:02:51.319Z,101622.63
2023-08-15T10:05:22.984Z,101637.34
2023-08-15T10:07:50.788Z,101637.06
2023-08-15T10:10:18.258Z,101643.13
2023-08-15T10:12:46.848Z,101645.81
2023-08-15T10:15:15.158Z,101644.66
2023-08-15T10:17:42.361Z,101654.72
2023-08-15T10:20:13.970Z,101657.25
2023-08-15T10:22:40.966Z,101657.22
2023-08-15T10:25:26.562Z,101662.59
2023-08-15T10:27:55.007Z,101664.09
2023-08-15T10:30:35.086Z,101660.41
2023-08-15T10:33:12.458Z,101665.94
2023-08-15T10:35:43.889Z,101666.78
2023-08-15T10:38:15.983Z,101666.78
2023-08-15T10:40:45.286Z,101671.84
2023-08-15T10:43:13.985Z,101679.88
2023-08-15T10:45:46.586Z,101682.53
2023-08-15T10:48:15.126Z,101676.47
2023-08-15T10:50:47.421Z,101683.16
2023-08-15T10:53:16.797Z,101684.66
2023-08-15T10:55:45.625Z,101687.66
2023-08-15T10:58:14.055Z,101688.50
2023-08-15T11:00:41.399Z,101691.03
2023-08-15T11:03:08.691Z,101701.94
2023-08-15T11:05:41.566Z,101701.13
2023-08-15T11:08:16.888Z,101694.25
2023-08-15T11:10:45.324Z,101695.78
2023-08-15T11:13:11.971Z,101702.63
2023-08-15T11:15:39.351Z,101696.41
2023-08-15T11:18:06.046Z,101704.47
2023-08-15T11:20:33.516Z,101700.94
2023-08-15T11:23:00.047Z,101698.75
2023-08-15T11:25:26.638Z,101703.81
2023-08-15T11:27:53.170Z,101704.66
2023-08-15T11:30:20.358Z,101706.13
2023-08-15T11:32:47.034Z,101703.94
2023-08-15T11:35:14.305Z,101702.91
2023-08-15T11:37:43.017Z,101711.50
2023-08-15T11:40:10.068Z,101706.16
2023-08-15T11:42:37.004Z,101715.59
2023-08-15T11:45:10.049Z,101708.34
2023-08-15T11:47:36.614Z,101717.06
2023-08-15T11:50:10.755Z,101708.66
2023-08-15T11:52:44.262Z,101716.53
2023-08-15T11:55:11.670Z,101718.16
2023-08-15T11:57:38.246Z,101720.63
2023-08-15T12:00:06.927Z,101726.19
2023-08-15T12:02:34.658Z,101723.03
2023-08-15T12:05:15.688Z,101732.22
2023-08-15T12:07:42.374Z,101741.66
2023-08-15T12:10:10.896Z,101740.63
2023-08-15T12:12:41.902Z,101739.28
2023-08-15T12:15:09.262Z,101738.38
2023-08-15T12:17:36.667Z,101739.06
2023-08-15T12:20:08.602Z,101730.19
2023-08-15T12:22:35.307Z,101734.53
2023-08-15T12:25:01.767Z,101735.97
2023-08-15T12:27:28.564Z,101729.47
2023-08-15T12:30:13.719Z,101731.66
2023-08-15T12:32:41.415Z,101728.47
2023-08-15T12:35:08.273Z,101723.91
2023-08-15T12:37:34.719Z,101724.09
2023-08-15T12:40:01.314Z,101728.97
2023-08-15T12:42:28.649Z,101727.25
2023-08-15T12:44:55.176Z,101725.72
2023-08-15T12:47:21.656Z,101726.06
2023-08-15T12:49:48.320Z,101723.84
2023-08-15T12:52:15.768Z,101720.66
2023-08-15T12:54:42.302Z,101729.72
2023-08-15T12:57:08.922Z,101728.41
2023-08-15T12:59:36.980Z,101733.25
2023-08-15T13:02:04.023Z,101735.94
2023-08-15T13:04:30.563Z,101730.41
2023-08-15T13:06:57.050Z,101730.06
2023-08-15T13:09:23.500Z,101731.94
2023-08-15T13:11:50.306Z,101748.38
2023-08-15T13:14:17.793Z,101745.34
2023-08-15T13:16:46.227Z,101736.44
2023-08-15T13:19:12.773Z,101746.09
2023-08-15T13:21:39.468Z,101745.56
2023-08-15T13:24:06.593Z,101736.97
2023-08-15T13:26:33.165Z,101742.53
2023-08-15T13:29:00.510Z,101742.19
2023-08-15T13:31:27.115Z,101746.75
2023-08-15T13:33:53.693Z,101737.47
2023-08-15T13:36:20.959Z,101732.78
2023-08-15T13:38:47.600Z,101729.91
2023-08-15T13:41:14.875Z,101731.94
2023-08-15T13:43:41.417Z,101737.00
2023-08-15T13:46:08.794Z,101733.13
2023-08-15T13:48:35.774Z,101739.34
2023-08-15T13:51:04.249Z,101745.91
2023-08-15T13:53:30.909Z,101743.22
2023-08-15T13:56:00.182Z,101744.72
2023-08-15T13:58:27.588Z,101742.38
2023-08-15T14:00:54.122Z,101748.25
2023-08-15T14:03:21.042Z,101754.31
2023-08-15T14:05:47.778Z,101753.81
2023-08-15T14:08:15.046Z,101750.97
2023-08-15T14:10:41.606Z,101749.94
2023-08-15T14:13:08.218Z,101751.78
2023-08-15T14:15:35.692Z,101753.47
2023-08-15T14:18:02.183Z,101751.97
2023-08-15T14:20:28.885Z,101744.53
2023-08-15T14:22:55.398Z,101747.59
2023-08-15T14:25:21.991Z,101742.72
2023-08-15T14:27:48.602Z,101747.22
2023-08-15T14:30:16.226Z,101741.69
2023-08-15T14:32:42.964Z,101746.38
2023-08-15T14:35:09.579Z,101750.25
2023-08-15T14:37:36.138Z,101751.09
2023-08-15T14:40:03.522Z,101747.22
2023-08-15T14:42:30.025Z,101754.97
2023-08-15T14:44:56.441Z,101747.75
2023-08-15T14:47:30.331Z,101749.78
2023-08-15T14:49:58.030Z,101753.31
2023-08-15T14:52:25.686Z,101751.44
2023-08-15T14:54:52.313Z,101756.00
2023-08-15T14:57:19.049Z,101758.16
2023-08-15T14:59:47.033Z,101760.34
2023-08-15T15:02:15.329Z,101760.69
2023-08-15T15:04:41.957Z,101753.94
2023-08-15T15:07:11.065Z,101756.13
2023-08-15T15:09:37.864Z,101754.44
2023-08-15T15:12:05.146Z,101764.66
2023-08-15T15:14:32.897Z,101768.53
2023-08-15T15:16:59.645Z,101767.88
2023-08-15T15:19:26.260Z,101770.56
2023-08-15T15:21:55.054Z,101767.31
2023-08-15T15:24:21.774Z,101764.63
2023-08-15T15:26:48.685Z,101764.81
2023-08-15T15:29:17.225Z,101765.97
2023-08-15T15:31:45.368Z,101767.00
2023-08-15T15:34:14.428Z,101774.34
2023-08-15T15:36:40.885Z,101774.22
2023-08-15T15:39:07.937Z,101772.22
2023-08-15T15:41:34.722Z,101772.88
2023-08-15T15:44:01.152Z,101772.03
2023-08-15T15:46:30.509Z,101778.59
2023-08-15T15:49:01.757Z,101776.91
2023-08-15T15:51:28.207Z,101781.41
2023-08-15T15:53:54.608Z,101785.81
2023-08-15T15:56:21.091Z,101789.19
2023-08-15T15:58:47.494Z,101774.91
2023-08-15T16:01:14.025Z,101785.47
2023-08-15T16:03:40.575Z,101789.69
2023-08-15T16:06:07.148Z,101787.53
2023-08-15T16:08:33.645Z,101792.59
2023-08-15T16:11:00.110Z,101792.09
2023-08-15T16:13:26.594Z,101791.09
2023-08-15T16:15:53.149Z,101800.00
2023-08-15T16:18:19.611Z,101797.16
2023-08-15T16:20:46.788Z,101799.00
2023-08-15T16:23:15.693Z,101799.16
2023-08-15T16:25:42.829Z,101804.84
2023-08-15T16:28:09.546Z,101805.19
2023-08-15T16:30:36.922Z,101802.50
2023-08-15T16:33:03.767Z,101799.97
2023-08-15T16:35:31.121Z,101813.25
2023-08-15T16:37:57.582Z,101813.44
2023-08-15T16:40:24.029Z,101818.13
2023-08-15T16:43:17.012Z,101817.13
2023-08-15T16:45:45.932Z,101811.88
2023-08-15T16:48:12.694Z,101818.44
2023-08-15T16:50:40.324Z,101815.06
2023-08-15T16:53:07.246Z,101813.56
2023-08-15T16:55:33.789Z,101818.09
2023-08-15T16:58:01.073Z,101817.38
2023-08-15T17:00:28.850Z,101817.88
2023-08-15T17:02:56.913Z,101822.59
2023-08-15T17:05:24.513Z,101820.16
2023-08-15T17:07:50.923Z,101818.81
2023-08-15T17:10:18.132Z,101827.06
2023-08-15T17:12:44.603Z,101825.50
2023-08-15T17:15:12.093Z,101833.06
2023-08-15T17:17:38.902Z,101839.13
2023-08-15T17:20:06.651Z,101834.59
2023-08-15T17:22:33.202Z,101843.47
2023-08-15T17:25:00.183Z,101848.69
2023-08-15T17:27:26.956Z,101845.03
2023-08-15T17:29:53.803Z,101851.38
2023-08-15T17:32:20.697Z,101862.00
2023-08-15T17:34:47.404Z,101856.63
2023-08-15T17:37:13.849Z,101861.84
2023-08-15T17:39:40.243Z,101872.44
2023-08-15T17:42:06.780Z,101869.75
2023-08-15T17:44:33.162Z,101868.06
2023-08-15T17:46:59.548Z,101871.94
2023-08-15T17:49:25.997Z,101874.06
2023-08-15T17:51:52.482Z,101878.94
2023-08-15T17:54:18.918Z,101886.28
2023-08-15T17:56:46.190Z,101882.25
2023-08-15T17:59:12.635Z,101883.41
2023-08-15T18:01:39.963Z,101880.19
2023-08-15T18:04:06.727Z,101884.19
2023-08-15T18:06:34.863Z,101877.81
2023-08-15T18:09:02.126Z,101884.03
2023-08-15T18:11:28.671Z,101885.88
2023-08-15T18:13:55.370Z,101889.41
2023-08-15T18:16:21.870Z,101897.31
2023-08-15T18:18:48.389Z,101901.00
2023-08-15T18:21:14.882Z,101911.91
2023-08-15T18:23:41.332Z,101912.91
2023-08-15T18:26:08.697Z,101919.31
2023-08-15T18:28:35.962Z,101919.44
2023-08-15T18:31:02.624Z,101920.44
2023-08-15T18:33:29.123Z,101923.28
2023-08-15T18:35:55.682Z,101926.13
2023-08-15T18:38:22.172Z,101922.75
2023-08-15T18:40:48.708Z,101922.75
2023-08-15T18:43:15.494Z,101921.22
2023-08-15T18:45:45.962Z,101929.44
2023-08-15T18:48:15.498Z,101930.44
2023-08-15T18:50:43.847Z,101937.66
2023-08-15T18:53:10.361Z,101935.13
2023-08-15T18:55:36.970Z,101938.13
2023-08-15T18:58:03.789Z,101936.41
2023-08-15T19:00:30.314Z,101937.28
2023-08-15T19:02:56.949Z,101938.97
2023-08-15T19:05:23.533Z,101940.81
2023-08-15T19:07:50.066Z,101944.34
2023-08-15T19:10:16.941Z,101933.59
2023-08-15T19:12:43.338Z,101939.81
2023-08-15T19:15:30.187Z,101938.97
2023-08-15T19:17:56.723Z,101941.66
2023-08-15T19:20:24.650Z,101951.56
2023-08-15T19:22:51.096Z,101949.72
2023-08-15T19:25:18.534Z,101956.94
2023-08-15T19:27:45.228Z,101958.78
2023-08-15T19:30:12.957Z,101963.28
2023-08-15T19:32:39.792Z,101964.28
2023-08-15T19:35:06.820Z,101966.13
2023-08-15T19:37:37.919Z,101972.22
2023-08-15T19:40:07.741Z,101971.34
2023-08-15T19:42:38.809Z,101975.59
2023-08-15T19:45:05.611Z,101980.66
2023-08-15T19:47:32.066Z,101981.50
2023-08-15T19:49:58.612Z,101981.50
2023-08-15T19:52:25.786Z,101977.81
2023-08-15T19:54:53.164Z,101978.81
2023-08-15T19:57:19.581Z,101977.97
2023-08-15T19:59:46.090Z,101989.41
2023-08-15T20:02:14.444Z,101984.88
2023-08-15T20:04:41.331Z,101987.72
2023-08-15T20:07:08.023Z,101991.25
2023-08-15T20:09:34.598Z,101994.78
2023-08-15T20:12:01.107Z,101989.28
2023-08-15T20:14:28.793Z,101990.25
2023-08-15T20:16:55.505Z,101992.94
2023-08-15T20:19:21.992Z,101987.56
2023-08-15T20:21:49.277Z,101997.47
2023-08-15T20:24:15.848Z,101992.09
2023-08-15T20:26:42.336Z,101997.63
2023-08-15T20:29:08.865Z,101997.63
2023-08-15T20:31:35.395Z,101995.09
2023-08-15T20:34:01.988Z,101994.25
2023-08-15T20:36:28.442Z,101998.78
2023-08-15T20:38:54.879Z,101998.09
2023-08-15T20:41:21.413Z,101999.09
2023-08-15T20:43:48.657Z,102015.34
2023-08-15T20:46:15.141Z,102016.34
2023-08-15T20:48:41.611Z,102010.97
2023-08-15T20:51:08.306Z,102019.19
2023-08-15T20:53:34.790Z,102023.56
2023-08-15T20:56:01.295Z,102022.72
2023-08-15T20:58:27.743Z,102021.03
2023-08-15T21:00:54.496Z,102023.72
2023-08-15T21:03:21.115Z,102022.88
2023-08-15T21:05:48.610Z,102028.25
2023-08-15T21:08:15.033Z,102023.03
2023-08-15T21:10:41.503Z,102030.25
2023-08-15T21:13:07.995Z,102030.41
2023-08-15T21:15:34.492Z,102028.56
2023-08-15T21:18:00.938Z,102029.53
2023-08-15T21:20:27.428Z,102040.44
2023-08-15T21:22:53.898Z,102042.28
2023-08-15T21:25:20.395Z,102033.53
2023-08-15T21:27:47.588Z,102045.97
2023-08-15T21:30:14.090Z,102042.44
2023-08-15T21:32:40.571Z,102050.50
2023-08-15T21:35:07.238Z,102046.13
2023-08-15T21:37:33.680Z,102048.13
2023-08-15T21:40:00.115Z,102049.13
2023-08-15T21:42:26.649Z,102048.28
2023-08-15T21:44:53.066Z,102048.56
2023-08-15T21:47:19.495Z,102043.47
2023-08-15T21:49:46.064Z,102045.47
2023-08-15T21:52:12.561Z,102044.63
2023-08-15T21:54:38.974Z,102045.75
2023-08-15T21:57:06.310Z,102045.06
2023-08-15T21:59:33.746Z,102041.53
2023-08-15T22:02:01.191Z,102039.16
2023-08-15T22:04:27.935Z,102037.47
2023-08-15T22:06:54.415Z,102040.28
2023-08-15T22:09:21.120Z,102052.88
2023-08-15T22:11:48.443Z,102052.16
2023-08-15T22:14:18.347Z,102046.25
2023-08-15T22:16:45.252Z,102048.09
2023-08-15T22:19:11.858Z,102060.81
2023-08-15T22:21:38.764Z,102061.66
2023-08-15T22:24:05.489Z,102063.66
2023-08-15T22:26:32.619Z,102063.81
2023-08-15T22:28:59.209Z,102055.75
2023-08-15T22:31:25.705Z,102055.06
2023-08-15T22:33:52.175Z,102054.22
2023-08-15T22:36:18.641Z,102054.38
2023-08-15T22:38:45.141Z,102059.59
2023-08-15T22:41:12.788Z,102059.84
2023-08-15T22:43:39.223Z,102061.69
2023-08-15T22:46:05.704Z,102054.78
2023-08-15T22:48:32.190Z,102051.28
2023-08-15T22:50:58.604Z,102050.56
2023-08-15T22:53:25.065Z,102055.09
2023-08-15T22:55:58.892Z,102048.16
2023-08-15T22:58:25.396Z,102039.25
2023-08-15T23:00:56.437Z,102050.16
2023-08-15T23:03:24.193Z,102044.94
2023-08-15T23:05:50.687Z,102046.78
2023-08-15T23:08:18.393Z,102055.84
2023-08-15T23:10:52.830Z,102048.78
2023-08-15T23:13:19.236Z,102053.31
2023-08-15T23:15:45.910Z,102054.25
2023-08-15T23:18:13.066Z,102046.38
2023-08-15T23:20:39.605Z,102046.53
2023-08-15T23:23:06.130Z,102047.38
2023-08-15T23:25:32.728Z,102048.50
2023-08-15T23:27:59.118Z,102042.31
2023-08-15T23:30:25.637Z,102048.66
2023-08-15T23:32:52.285Z,102057.72
2023-08-15T23:35:18.946Z,102053.31
2023-08-15T23:37:45.557Z,102052.47
2023-08-15T23:40:12.388Z,102050.78
2023-08-15T23:42:38.904Z,102055.28
2023-08-15T23:45:07.315Z,102051.78
2023-08-15T23:47:36.651Z,102051.91
2023-08-15T23:50:04.318Z,102060.13
2023-08-15T23:52:31.083Z,102053.91
2023-08-15T23:54:58.443Z,102055.91
2023-08-15T23:57:26.001Z,102055.91
2023-08-15T23:59:52.653Z,102057.72
